createdAt,value
2019-04-30T00:01:33.581Z,35.07
2019-04-30T00:04:06.567Z,34.10
2019-04-30T00:06:39.544Z,31.63
2019-04-30T00:09:15.140Z,33.60
2019-04-30T00:11:41.463Z,36.00
2019-04-30T00:14:10.873Z,36.63
2019-04-30T00:16:40.171Z,34.43
2019-04-30T00:19:10.621Z,33.90
2019-04-30T00:21:40.535Z,34.13
2019-04-30T00:24:10.401Z,33.00
2019-04-30T00:26:40.054Z,36.13
2019-04-30T00:29:10.612Z,32.90
2019-04-30T00:31:40.086Z,31.00
2019-04-30T00:34:09.503Z,30.77
2019-04-30T00:36:39.547Z,32.50
2019-04-30T00:39:13.234Z,33.10
2019-04-30T00:41:44.096Z,32.20
2019-04-30T00:44:12.252Z,34.63
2019-04-30T00:46:41.428Z,32.60
2019-04-30T00:49:16.055Z,34.03
2019-04-30T00:51:42.041Z,32.03
2019-04-30T00:54:12.202Z,34.90
2019-04-30T00:56:41.367Z,34.53
2019-04-30T00:59:10.796Z,33.03
2019-04-30T01:01:58.487Z,35.40
2019-04-30T01:04:34.963Z,35.97
2019-04-30T01:07:08.477Z,34.80
2019-04-30T01:09:39.625Z,34.33
2019-04-30T01:12:07.769Z,36.33
2019-04-30T01:14:38.643Z,31.90
2019-04-30T01:17:12.049Z,32.90
2019-04-30T01:19:39.649Z,33.80
2019-04-30T01:22:09.164Z,32.67
2019-04-30T01:24:38.776Z,34.67
2019-04-30T01:27:10.417Z,28.53
2019-04-30T01:29:44.093Z,30.43
2019-04-30T01:32:17.596Z,33.73
2019-04-30T01:34:44.316Z,31.33
2019-04-30T01:37:14.707Z,32.63
2019-04-30T01:39:44.435Z,32.07
2019-04-30T01:42:13.839Z,31.40
2019-04-30T01:44:50.375Z,31.17
2019-04-30T01:47:14.764Z,30.63
2019-04-30T01:49:44.835Z,29.40
2019-04-30T01:52:14.388Z,36.77
2019-04-30T01:54:43.900Z,36.60
2019-04-30T01:57:30.791Z,34.50
2019-04-30T02:00:25.505Z,31.60
2019-04-30T02:02:55.086Z,30.70
2019-04-30T02:05:24.246Z,31.83
2019-04-30T02:07:53.397Z,31.23
2019-04-30T02:10:23.440Z,30.07
2019-04-30T02:12:52.921Z,34.30
2019-04-30T02:15:22.345Z,31.43
2019-04-30T02:17:51.803Z,29.73
2019-04-30T02:20:21.860Z,28.97
2019-04-30T02:22:51.006Z,30.03
2019-04-30T02:25:20.945Z,32.23
2019-04-30T02:27:51.144Z,28.93
2019-04-30T02:30:21.043Z,30.10
2019-04-30T02:32:52.600Z,29.07
2019-04-30T02:35:40.492Z,30.63
2019-04-30T02:38:12.478Z,29.83
2019-04-30T02:40:42.650Z,29.50
2019-04-30T02:43:12.662Z,29.93
2019-04-30T02:45:42.729Z,29.60
2019-04-30T02:48:12.277Z,31.37
2019-04-30T02:50:43.171Z,29.67
2019-04-30T02:53:50.214Z,31.60
2019-04-30T02:56:20.131Z,31.07
2019-04-30T02:58:50.757Z,30.47
2019-04-30T03:01:20.604Z,28.27
2019-04-30T03:03:50.354Z,31.67
2019-04-30T03:06:20.473Z,30.00
2019-04-30T03:08:51.392Z,28.53
2019-04-30T03:11:21.729Z,32.87
2019-04-30T03:13:50.967Z,26.50
2019-04-30T03:16:24.399Z,28.87
2019-04-30T03:19:29.503Z,33.07
2019-04-30T03:22:03.164Z,32.77
2019-04-30T03:24:33.070Z,29.70
2019-04-30T03:27:02.230Z,33.10
2019-04-30T03:29:32.004Z,31.07
2019-04-30T03:32:03.703Z,33.03
2019-04-30T03:34:34.811Z,28.97
2019-04-30T03:37:04.802Z,27.83
2019-04-30T03:39:34.352Z,27.07
2019-04-30T03:42:03.796Z,31.27
2019-04-30T03:44:33.549Z,31.90
2019-04-30T03:47:04.558Z,31.70
2019-04-30T03:49:36.259Z,36.13
2019-04-30T03:52:05.723Z,32.93
2019-04-30T03:54:35.152Z,31.93
2019-04-30T03:57:04.335Z,34.07
2019-04-30T03:59:33.489Z,35.33
2019-04-30T04:02:20.831Z,35.33
2019-04-30T04:05:06.580Z,34.07
2019-04-30T04:07:59.838Z,31.37
2019-04-30T04:10:40.405Z,33.40
2019-04-30T04:13:10.424Z,34.43
2019-04-30T04:15:40.101Z,35.60
2019-04-30T04:18:10.671Z,37.13
2019-04-30T04:20:42.776Z,34.90
2019-04-30T04:23:12.335Z,31.77
2019-04-30T04:25:43.380Z,34.97
2019-04-30T04:28:12.546Z,33.97
2019-04-30T04:30:43.290Z,36.43
2019-04-30T04:33:13.782Z,37.57
2019-04-30T04:35:43.196Z,38.03
2019-04-30T04:38:13.021Z,35.13
2019-04-30T04:40:42.528Z,41.30
2019-04-30T04:43:11.690Z,37.73
2019-04-30T04:45:43.815Z,39.10
2019-04-30T04:48:12.564Z,37.80
2019-04-30T04:50:41.788Z,36.37
2019-04-30T04:53:11.756Z,32.60
2019-04-30T04:55:42.383Z,38.23
2019-04-30T04:58:12.935Z,35.13
2019-04-30T05:00:42.561Z,35.47
2019-04-30T05:03:25.989Z,34.77
2019-04-30T05:05:55.151Z,36.23
2019-04-30T05:08:24.337Z,39.03
2019-04-30T05:10:54.273Z,36.43
2019-04-30T05:13:24.896Z,35.80
2019-04-30T05:15:54.397Z,38.37
2019-04-30T05:18:23.593Z,37.83
2019-04-30T05:20:52.781Z,38.37
2019-04-30T05:23:23.513Z,37.77
2019-04-30T05:25:55.087Z,40.30
2019-04-30T05:28:24.311Z,37.03
2019-04-30T05:30:59.400Z,33.70
2019-04-30T05:33:29.008Z,37.17
2019-04-30T05:35:59.416Z,38.80
2019-04-30T05:38:31.251Z,37.47
2019-04-30T05:40:59.805Z,36.53
2019-04-30T05:43:31.147Z,38.37
2019-04-30T05:46:01.434Z,36.50
2019-04-30T05:48:30.620Z,33.77
2019-04-30T05:50:59.834Z,35.17
2019-04-30T05:53:29.057Z,33.40
2019-04-30T05:55:59.490Z,34.70
2019-04-30T05:58:29.966Z,32.60
2019-04-30T06:01:00.844Z,35.17
2019-04-30T06:03:33.213Z,34.43
2019-04-30T06:06:01.249Z,32.70
2019-04-30T06:08:39.271Z,32.70
2019-04-30T06:11:19.226Z,33.73
2019-04-30T06:14:13.598Z,38.33
2019-04-30T06:16:44.382Z,33.50
2019-04-30T06:19:13.597Z,33.00
2019-04-30T06:21:43.069Z,32.57
2019-04-30T06:24:12.350Z,30.03
2019-04-30T06:26:41.525Z,31.13
2019-04-30T06:29:10.932Z,32.23
2019-04-30T06:31:43.089Z,33.23
2019-04-30T06:34:12.635Z,28.17
2019-04-30T06:36:51.047Z,30.17
2019-04-30T06:39:16.131Z,28.17
2019-04-30T06:41:45.687Z,28.70
2019-04-30T06:44:15.427Z,32.50
2019-04-30T06:46:45.969Z,39.17
2019-04-30T06:49:16.532Z,29.90
2019-04-30T06:51:46.687Z,31.53
2019-04-30T06:54:19.159Z,29.17
2019-04-30T06:56:49.809Z,27.30
2019-04-30T06:59:20.339Z,27.73
2019-04-30T07:01:49.820Z,26.97
2019-04-30T07:04:20.316Z,22.17
2019-04-30T07:06:50.603Z,27.40
2019-04-30T07:09:31.651Z,25.97
2019-04-30T07:12:04.253Z,26.00
2019-04-30T07:14:35.215Z,24.57
2019-04-30T07:17:04.382Z,24.77
2019-04-30T07:19:50.283Z,25.77
2019-04-30T07:22:04.455Z,23.97
2019-04-30T07:24:39.424Z,22.80
2019-04-30T07:27:09.392Z,28.63
2019-04-30T07:29:39.328Z,28.70
2019-04-30T07:32:09.440Z,25.67
2019-04-30T07:34:39.540Z,21.83
2019-04-30T07:37:14.566Z,22.50
2019-04-30T07:39:39.906Z,26.53
2019-04-30T07:42:09.303Z,24.87
2019-04-30T07:44:42.331Z,24.47
2019-04-30T07:47:11.605Z,21.27
2019-04-30T07:49:51.548Z,24.33
2019-04-30T07:52:12.685Z,20.83
2019-04-30T07:54:43.435Z,21.83
2019-04-30T07:57:13.723Z,21.43
2019-04-30T07:59:42.911Z,21.77
2019-04-30T08:02:14.742Z,23.37
2019-04-30T08:04:47.586Z,21.07
2019-04-30T08:07:16.749Z,19.03
2019-04-30T08:09:49.345Z,18.43
2019-04-30T08:12:25.677Z,19.03
2019-04-30T08:14:49.563Z,15.70
2019-04-30T08:17:19.013Z,14.60
2019-04-30T08:19:48.992Z,15.20
2019-04-30T08:22:19.636Z,17.03
2019-04-30T08:24:49.241Z,17.00
2019-04-30T08:27:19.626Z,15.73
2019-04-30T08:29:50.153Z,15.43
2019-04-30T08:32:19.284Z,13.07
2019-04-30T08:34:50.096Z,12.00
2019-04-30T08:37:20.235Z,11.20
2019-04-30T08:39:49.829Z,12.23
2019-04-30T08:42:30.717Z,8.97
2019-04-30T08:44:53.043Z,10.50
2019-04-30T08:47:22.225Z,10.10
2019-04-30T08:49:51.459Z,11.70
2019-04-30T08:52:21.011Z,12.03
2019-04-30T08:54:50.823Z,8.93
2019-04-30T08:57:21.251Z,11.43
2019-04-30T08:59:51.841Z,11.13
2019-04-30T09:02:21.061Z,13.03
2019-04-30T09:04:53.506Z,10.97
2019-04-30T09:07:22.818Z,9.37
2019-04-30T09:09:52.256Z,11.03
2019-04-30T09:12:21.697Z,9.67
2019-04-30T09:14:51.607Z,11.83
2019-04-30T09:17:20.783Z,15.63
2019-04-30T09:19:50.626Z,14.77
2019-04-30T09:22:19.806Z,10.13
2019-04-30T09:24:49.847Z,11.80
2019-04-30T09:27:19.695Z,13.67
2019-04-30T09:29:49.440Z,12.50
2019-04-30T09:32:19.356Z,14.03
2019-04-30T09:34:48.914Z,11.93
2019-04-30T09:37:19.252Z,15.00
2019-04-30T09:39:49.668Z,12.93
2019-04-30T09:42:19.472Z,10.83
2019-04-30T09:44:49.378Z,12.00
2019-04-30T09:47:20.094Z,16.70
2019-04-30T09:49:49.570Z,16.03
2019-04-30T09:52:19.451Z,12.17
2019-04-30T09:54:50.244Z,15.23
2019-04-30T09:57:19.852Z,14.03
2019-04-30T09:59:52.160Z,12.07
2019-04-30T10:02:22.210Z,12.83
2019-04-30T10:04:52.041Z,12.37
2019-04-30T10:07:23.835Z,9.97
2019-04-30T10:09:54.793Z,12.83
2019-04-30T10:12:24.305Z,14.87
2019-04-30T10:14:54.569Z,10.83
2019-04-30T10:17:40.865Z,11.17
2019-04-30T10:20:12.444Z,10.50
2019-04-30T10:22:41.926Z,11.63
2019-04-30T10:25:13.914Z,9.53
2019-04-30T10:27:43.094Z,13.80
2019-04-30T10:30:13.228Z,11.00
2019-04-30T10:32:42.507Z,11.63
2019-04-30T10:35:12.588Z,10.17
2019-04-30T10:37:48.551Z,9.77
2019-04-30T10:40:28.839Z,10.33
2019-04-30T10:42:58.696Z,10.30
2019-04-30T10:45:28.793Z,9.63
2019-04-30T10:47:59.277Z,9.50
2019-04-30T10:50:28.859Z,13.27
2019-04-30T10:52:59.189Z,9.53
2019-04-30T10:55:28.719Z,9.57
2019-04-30T10:58:00.276Z,9.20
2019-04-30T11:00:49.705Z,10.80
2019-04-30T11:03:22.869Z,10.43
2019-04-30T11:05:51.143Z,8.90
2019-04-30T11:08:22.561Z,8.97
2019-04-30T11:10:51.709Z,8.03
2019-04-30T11:13:20.896Z,12.47
2019-04-30T11:15:50.066Z,11.10
2019-04-30T11:18:21.414Z,11.20
2019-04-30T11:20:51.257Z,10.97
2019-04-30T11:23:21.354Z,9.00
2019-04-30T11:25:52.002Z,9.23
2019-04-30T11:28:22.162Z,9.53
2019-04-30T11:30:53.931Z,11.23
2019-04-30T11:33:23.359Z,7.73
2019-04-30T11:36:02.248Z,11.53
2019-04-30T11:38:25.918Z,11.10
2019-04-30T11:40:58.438Z,12.63
2019-04-30T11:43:29.469Z,11.00
2019-04-30T11:46:35.909Z,8.93
2019-04-30T11:49:05.163Z,8.00
2019-04-30T11:51:35.139Z,9.37
2019-04-30T11:54:09.014Z,9.33
2019-04-30T11:56:39.316Z,10.17
2019-04-30T11:59:08.714Z,6.90
2019-04-30T12:01:38.982Z,9.97
2019-04-30T12:04:09.342Z,12.00
2019-04-30T12:06:39.537Z,8.23
2019-04-30T12:09:20.122Z,10.40
2019-04-30T12:11:50.670Z,10.33
2019-04-30T12:14:21.040Z,10.30
2019-04-30T12:16:50.863Z,9.17
2019-04-30T12:19:20.290Z,10.90
2019-04-30T12:21:51.364Z,12.23
2019-04-30T12:24:20.556Z,10.43
2019-04-30T12:26:50.219Z,8.87
2019-04-30T12:29:19.686Z,8.23
2019-04-30T12:31:49.193Z,9.07
2019-04-30T12:34:18.372Z,10.10
2019-04-30T12:36:49.595Z,11.40
2019-04-30T12:39:20.306Z,11.27
2019-04-30T12:41:50.264Z,9.97
2019-04-30T12:44:20.602Z,12.83
2019-04-30T12:46:50.052Z,12.73
2019-04-30T12:49:19.494Z,8.03
2019-04-30T12:52:19.587Z,7.97
2019-04-30T12:55:15.237Z,9.20
2019-04-30T12:57:56.441Z,8.60
2019-04-30T13:00:19.483Z,10.43
2019-04-30T13:02:49.024Z,10.10
2019-04-30T13:05:18.918Z,8.03
2019-04-30T13:07:50.610Z,10.93
2019-04-30T13:10:21.081Z,9.47
2019-04-30T13:12:51.337Z,12.33
2019-04-30T13:15:21.719Z,9.53
2019-04-30T13:17:51.136Z,9.60
2019-04-30T13:20:23.939Z,12.33
2019-04-30T13:22:52.986Z,11.50
2019-04-30T13:25:30.868Z,8.90
2019-04-30T13:27:57.003Z,9.43
2019-04-30T13:30:30.576Z,11.03
2019-04-30T13:33:28.843Z,11.07
2019-04-30T13:35:58.906Z,10.47
2019-04-30T13:38:47.561Z,10.53
2019-04-30T13:41:36.436Z,8.93
2019-04-30T13:44:11.843Z,9.60
2019-04-30T13:46:41.260Z,9.07
2019-04-30T13:49:11.207Z,9.63
2019-04-30T13:51:42.962Z,12.00
2019-04-30T13:54:12.953Z,10.93
2019-04-30T13:56:42.391Z,10.67
2019-04-30T13:59:11.587Z,9.77
2019-04-30T14:01:41.039Z,11.13
2019-04-30T14:04:20.584Z,9.87
2019-04-30T14:07:08.986Z,11.80
2019-04-30T14:09:38.147Z,10.77
2019-04-30T14:12:07.435Z,11.20
2019-04-30T14:14:39.431Z,10.37
2019-04-30T14:17:09.316Z,9.17
2019-04-30T14:19:39.030Z,9.50
2019-04-30T14:22:10.806Z,9.13
2019-04-30T14:24:41.200Z,10.27
2019-04-30T14:27:11.297Z,9.40
2019-04-30T14:29:41.974Z,9.87
2019-04-30T14:32:11.171Z,12.43
2019-04-30T14:34:43.301Z,9.80
2019-04-30T14:37:22.165Z,9.90
2019-04-30T14:39:57.503Z,9.43
2019-04-30T14:42:27.965Z,10.23
2019-04-30T14:45:09.164Z,9.90
2019-04-30T14:47:50.698Z,8.83
2019-04-30T14:50:22.189Z,10.07
2019-04-30T14:53:05.131Z,9.17
2019-04-30T14:56:08.807Z,10.60
2019-04-30T14:58:52.725Z,11.70
2019-04-30T15:01:29.718Z,7.70
2019-04-30T15:03:59.508Z,10.77
2019-04-30T15:06:29.022Z,8.43
2019-04-30T15:08:59.129Z,9.37
2019-04-30T15:11:28.952Z,11.07
2019-04-30T15:14:03.659Z,9.97
2019-04-30T15:16:33.326Z,11.53
2019-04-30T15:19:03.380Z,8.73
2019-04-30T15:21:32.817Z,9.07
2019-04-30T15:24:15.573Z,12.20
2019-04-30T15:26:44.759Z,7.77
2019-04-30T15:29:16.245Z,7.70
2019-04-30T15:31:45.632Z,11.00
2019-04-30T15:34:14.998Z,8.10
2019-04-30T15:36:45.632Z,7.57
2019-04-30T15:39:21.560Z,10.00
2019-04-30T15:41:51.906Z,9.57
2019-04-30T15:44:22.505Z,7.83
2019-04-30T15:46:55.036Z,9.77
2019-04-30T15:49:27.119Z,10.53
2019-04-30T15:51:57.127Z,7.40
2019-04-30T15:54:26.921Z,8.73
2019-04-30T15:56:56.560Z,8.97
2019-04-30T15:59:52.213Z,8.70
2019-04-30T16:02:28.757Z,10.07
2019-04-30T16:05:21.138Z,9.33
2019-04-30T16:08:11.401Z,9.30
2019-04-30T16:11:08.120Z,9.97
2019-04-30T16:14:14.483Z,9.83
2019-04-30T16:16:49.816Z,7.67
2019-04-30T16:19:20.037Z,8.80
2019-04-30T16:21:54.505Z,10.50
2019-04-30T16:24:29.230Z,8.90
2019-04-30T16:26:59.331Z,11.07
2019-04-30T16:29:29.691Z,10.27
2019-04-30T16:32:00.236Z,10.27
2019-04-30T16:34:31.276Z,10.83
2019-04-30T16:37:00.890Z,9.03
2019-04-30T16:39:30.309Z,9.10
2019-04-30T16:42:02.504Z,8.57
2019-04-30T16:44:32.277Z,7.37
2019-04-30T16:47:13.142Z,9.03
2019-04-30T16:49:33.016Z,7.53
2019-04-30T16:52:05.247Z,8.67
2019-04-30T16:54:35.114Z,9.17
2019-04-30T16:57:06.879Z,9.30
2019-04-30T16:59:42.935Z,8.43
2019-04-30T17:02:14.055Z,9.43
2019-04-30T17:05:03.324Z,9.33
2019-04-30T17:07:55.135Z,9.07
2019-04-30T17:10:50.544Z,9.07
2019-04-30T17:13:40.171Z,9.63
2019-04-30T17:16:11.503Z,7.47
2019-04-30T17:18:41.818Z,10.50
2019-04-30T17:21:11.057Z,8.70
2019-04-30T17:23:40.505Z,8.83
2019-04-30T17:26:09.642Z,9.63
2019-04-30T17:28:39.997Z,9.43
2019-04-30T17:31:09.746Z,11.77
2019-04-30T17:33:38.944Z,9.20
2019-04-30T17:36:11.035Z,10.03
2019-04-30T17:38:40.394Z,10.50
2019-04-30T17:41:10.416Z,11.13
2019-04-30T17:43:41.688Z,9.97
2019-04-30T17:46:10.914Z,8.40
2019-04-30T17:48:40.161Z,10.33
2019-04-30T17:51:09.536Z,9.87
2019-04-30T17:53:58.739Z,8.90
2019-04-30T17:56:37.507Z,10.73
2019-04-30T17:59:08.832Z,11.23
2019-04-30T18:01:42.377Z,10.30
2019-04-30T18:04:16.396Z,8.13
2019-04-30T18:06:48.382Z,9.03
2019-04-30T18:09:21.746Z,14.07
2019-04-30T18:11:56.005Z,9.97
2019-04-30T18:14:31.032Z,9.73
2019-04-30T18:17:04.193Z,11.70
2019-04-30T18:19:41.590Z,12.17
2019-04-30T18:22:19.496Z,9.87
2019-04-30T18:25:14.334Z,10.17
2019-04-30T18:28:01.031Z,11.53
2019-04-30T18:30:36.775Z,12.53
2019-04-30T18:33:11.914Z,9.70
2019-04-30T18:35:42.886Z,10.23
2019-04-30T18:38:13.569Z,10.80
2019-04-30T18:40:43.288Z,13.10
2019-04-30T18:43:13.386Z,10.20
2019-04-30T18:45:42.566Z,12.23
2019-04-30T18:48:12.839Z,12.50
2019-04-30T18:50:42.304Z,10.93
2019-04-30T18:53:16.290Z,14.10
2019-04-30T18:55:51.020Z,14.37
2019-04-30T18:58:20.216Z,13.40
2019-04-30T19:00:50.106Z,11.03
2019-04-30T19:03:21.783Z,11.83
2019-04-30T19:05:58.671Z,13.23
2019-04-30T19:08:39.488Z,12.30
2019-04-30T19:11:35.879Z,13.23
2019-04-30T19:14:40.186Z,12.83
2019-04-30T19:17:46.301Z,15.30
2019-04-30T19:20:38.561Z,13.30
2019-04-30T19:23:10.168Z,13.90
2019-04-30T19:25:39.964Z,13.03
2019-04-30T19:28:14.237Z,13.33
2019-04-30T19:30:54.461Z,14.73
2019-04-30T19:33:13.465Z,14.73
2019-04-30T19:35:44.225Z,12.97
2019-04-30T19:38:15.028Z,16.57
2019-04-30T19:40:44.571Z,14.77
2019-04-30T19:43:13.723Z,13.63
2019-04-30T19:45:46.082Z,13.70
2019-04-30T19:48:16.555Z,15.47
2019-04-30T19:50:46.034Z,17.00
2019-04-30T19:53:15.238Z,12.70
2019-04-30T19:55:45.528Z,13.13
2019-04-30T19:58:26.088Z,14.73
2019-04-30T20:00:45.899Z,13.93
2019-04-30T20:03:15.119Z,14.07
2019-04-30T20:05:45.712Z,17.10
2019-04-30T20:08:15.711Z,17.60
2019-04-30T20:10:44.866Z,13.30
2019-04-30T20:13:14.380Z,15.83
2019-04-30T20:15:44.046Z,18.33
2019-04-30T20:18:13.485Z,18.03
2019-04-30T20:20:46.969Z,17.43
2019-04-30T20:23:16.159Z,17.43
2019-04-30T20:25:45.326Z,13.97
2019-04-30T20:28:14.526Z,14.70
2019-04-30T20:30:43.685Z,16.87
2019-04-30T20:33:15.536Z,14.57
2019-04-30T20:35:44.845Z,16.47
2019-04-30T20:38:44.873Z,14.37
2019-04-30T20:41:14.415Z,15.70
2019-04-30T20:43:43.956Z,14.00
2019-04-30T20:46:13.454Z,13.73
2019-04-30T20:48:42.617Z,15.87
2019-04-30T20:51:12.038Z,15.10
2019-04-30T20:53:41.574Z,15.50
2019-04-30T20:56:11.805Z,15.00
2019-04-30T20:58:54.654Z,13.30
2019-04-30T21:01:11.927Z,15.67
2019-04-30T21:03:42.412Z,15.67
2019-04-30T21:06:12.997Z,14.93
2019-04-30T21:08:46.275Z,16.43
2019-04-30T21:11:19.211Z,20.10
2019-04-30T21:13:51.421Z,18.83
2019-04-30T21:16:24.543Z,23.07
2019-04-30T21:21:46.516Z,19.93
2019-04-30T21:24:17.959Z,17.60
2019-04-30T21:26:51.497Z,17.50
2019-04-30T21:29:23.883Z,16.20
2019-04-30T21:32:12.339Z,21.60
2019-04-30T21:34:47.689Z,20.30
2019-04-30T21:37:19.703Z,17.07
2019-04-30T21:39:50.126Z,19.33
2019-04-30T21:42:20.787Z,17.73
2019-04-30T21:44:52.467Z,21.13
2019-04-30T21:47:24.696Z,16.93
2019-04-30T21:49:54.780Z,17.60
2019-04-30T21:52:24.812Z,17.33
2019-04-30T21:54:54.979Z,17.13
2019-04-30T21:57:24.587Z,17.77
2019-04-30T21:59:58.684Z,16.50
2019-04-30T22:02:31.083Z,17.37
2019-04-30T22:05:01.715Z,16.80
2019-04-30T22:07:31.547Z,16.17
2019-04-30T22:10:02.332Z,16.70
2019-04-30T22:12:31.603Z,18.37
2019-04-30T22:15:00.872Z,16.03
2019-04-30T22:17:30.053Z,17.37
2019-04-30T22:20:01.293Z,15.63
2019-04-30T22:22:30.464Z,15.53
2019-04-30T22:24:59.837Z,17.57
2019-04-30T22:27:29.764Z,14.87
2019-04-30T22:30:02.181Z,18.37
2019-04-30T22:32:31.612Z,16.40
2019-04-30T22:35:20.175Z,17.07
2019-04-30T22:37:51.980Z,16.93
2019-04-30T22:40:22.275Z,15.17
2019-04-30T22:42:53.348Z,15.40
2019-04-30T22:45:30.953Z,19.53
2019-04-30T22:48:00.089Z,15.93
2019-04-30T22:50:30.056Z,16.13
2019-04-30T22:52:59.570Z,15.13
2019-04-30T22:55:35.384Z,15.53
2019-04-30T22:58:04.978Z,18.47
2019-04-30T23:00:43.441Z,20.73
2019-04-30T23:03:20.196Z,18.10
2019-04-30T23:05:50.579Z,21.30
2019-04-30T23:08:19.736Z,18.70
2019-04-30T23:10:49.242Z,17.87
2019-04-30T23:13:18.900Z,21.80
2019-04-30T23:15:49.991Z,19.13
2019-04-30T23:18:20.799Z,18.90
2019-04-30T23:20:50.327Z,18.50
2019-04-30T23:23:21.880Z,18.53
2019-04-30T23:25:53.598Z,17.43
2019-04-30T23:28:24.607Z,15.43
2019-04-30T23:30:53.966Z,19.43
2019-04-30T23:33:24.521Z,19.43
2019-04-30T23:35:55.744Z,16.50
2019-04-30T23:38:25.832Z,19.50
2019-04-30T23:40:55.010Z,19.00
2019-04-30T23:43:24.447Z,19.50
2019-04-30T23:45:56.397Z,15.90
2019-04-30T23:48:25.562Z,19.50
2019-04-30T23:50:56.060Z,20.20
2019-04-30T23:53:26.270Z,17.10
2019-04-30T23:56:01.615Z,19.13
2019-04-30T23:58:31.053Z,20.17
